Middletown, California
Current Conditions -  °F | °C
As of 1:09 PM on Thursday 20 Nov 2014 (Local Time) from KSTS Reporting Station
Overcast Overcast  
Wind Chill: 55°   Ceiling: 1100
Heat Index: 55°   Visibility: 10mi
Dew Point: 54°   Wind: 6mph
Humidity: 94%   Direction: 140°SE
Pressure: 29.99"   Gusts: NA
Location:  38.75°N, 122.62°W
Report Text: KSTS 202109Z 14005KT 10SM SCT006 BKN011 OVC049 13/12 A2999 RMK AO2 RAE2058 P0000
Loading
Personal Weather Stations






























Interactive Weather Map New forecast layout! Learn more

10-Day Weather Forecast

Advertisements
Track Severe Weather on mobile